createdAt,value
2018-03-25T00:04:38.281Z,6.84
2018-03-25T00:10:29.018Z,6.57
2018-03-25T00:16:19.673Z,6.23
2018-03-25T00:22:10.337Z,5.3
2018-03-25T00:28:01.025Z,5.79
2018-03-25T00:33:51.743Z,4.24
2018-03-25T00:39:42.407Z,5.06
2018-03-25T00:45:33.150Z,4.8
2018-03-25T00:51:23.819Z,5.21
2018-03-25T00:57:14.465Z,5.46
2018-03-25T01:03:05.188Z,4.87
2018-03-25T01:08:55.893Z,5.3
2018-03-25T01:14:46.572Z,5.37
2018-03-25T01:20:37.269Z,6.29
2018-03-25T01:26:27.983Z,5.04
2018-03-25T01:32:18.656Z,5.41
2018-03-25T01:38:09.404Z,4.85
2018-03-25T01:44:00.020Z,4.79
2018-03-25T01:49:50.788Z,4.89
2018-03-25T01:55:41.399Z,5.74
2018-03-25T02:01:32.104Z,4.69
2018-03-25T02:07:22.800Z,4.37
2018-03-25T02:13:13.490Z,5.81
2018-03-25T02:19:04.222Z,4.85
2018-03-25T02:24:54.871Z,4.52
2018-03-25T02:30:45.564Z,5.64
2018-03-25T02:36:36.262Z,5.87
2018-03-25T02:42:26.993Z,4.64
2018-03-25T02:48:17.648Z,5.03
2018-03-25T02:54:08.327Z,5.36
2018-03-25T02:59:59.016Z,5.61
2018-03-25T03:05:49.709Z,5.2
2018-03-25T03:11:40.407Z,5.39
2018-03-25T03:17:31.142Z,5.79
2018-03-25T03:23:21.779Z,4.75
2018-03-25T03:29:12.471Z,4.91
2018-03-25T03:35:03.143Z,4.8
2018-03-25T03:40:53.838Z,5.01
2018-03-25T03:46:44.535Z,5.22
2018-03-25T03:52:35.176Z,5.66
2018-03-25T03:58:25.910Z,5.75
2018-03-25T04:04:16.588Z,5.22
2018-03-25T04:10:07.273Z,4.82
2018-03-25T04:15:57.989Z,5.1
2018-03-25T04:21:48.665Z,4.99
2018-03-25T04:27:39.374Z,5
2018-03-25T04:33:30.052Z,4.81
2018-03-25T04:39:20.722Z,5.39
2018-03-25T04:45:11.427Z,5.14
2018-03-25T04:51:02.200Z,6.38
2018-03-25T04:56:52.796Z,5.25
2018-03-25T05:02:43.495Z,4.69
2018-03-25T05:08:34.176Z,5.7
2018-03-25T05:14:24.862Z,5.77
2018-03-25T05:20:15.569Z,6.37
2018-03-25T05:26:06.221Z,6.27
2018-03-25T05:31:56.944Z,6.11
2018-03-25T05:37:47.648Z,6.2
2018-03-25T05:43:38.300Z,6.09
2018-03-25T05:49:29.023Z,7.08
2018-03-25T05:55:19.642Z,7.05
2018-03-25T06:01:10.398Z,7.25
2018-03-25T06:07:01.057Z,5.97
2018-03-25T06:12:51.703Z,7.09
2018-03-25T06:18:42.444Z,7.14
2018-03-25T06:24:33.167Z,7.03
2018-03-25T06:30:23.829Z,7.51
2018-03-25T06:36:14.510Z,7.06
2018-03-25T06:42:05.179Z,6.71
2018-03-25T06:47:55.845Z,7.4
2018-03-25T06:53:46.625Z,7.18
2018-03-25T06:59:37.243Z,7.9
2018-03-25T07:05:27.927Z,6.88
2018-03-25T07:11:18.632Z,6.41
2018-03-25T07:17:09.298Z,6.03
2018-03-25T07:23:00.016Z,7.48
